sensor_id;sensor_type;location;lat;lon;timestamp;P1;P2;P0
77411;PMS7003;66484;49.968;19.140;2023-07-29T00:02:01;11.25;11.25;10.00
77411;PMS7003;66484;49.968;19.140;2023-07-29T00:04:29;9.75;7.25;6.25
77411;PMS7003;66484;49.968;19.140;2023-07-29T00:06:57;14.00;10.25;8.75
77411;PMS7003;66484;49.968;19.140;2023-07-29T00:09:24;8.75;7.75;6.75
77411;PMS7003;66484;49.968;19.140;2023-07-29T00:11:51;12.00;12.00;10.00
77411;PMS7003;66484;49.968;19.140;2023-07-29T00:14:19;8.75;8.75;8.00
77411;PMS7003;66484;49.968;19.140;2023-07-29T00:16:46;0.00;0.00;0.00
77411;PMS7003;66484;49.968;19.140;2023-07-29T00:19:14;8.50;7.25;6.25
77411;PMS7003;66484;49.968;19.140;2023-07-29T00:21:42;6.75;6.75;6.00
77411;PMS7003;66484;49.968;19.140;2023-07-29T00:24:09;10.75;8.50;6.75
77411;PMS7003;66484;49.968;19.140;2023-07-29T00:26:36;8.00;8.00;7.00
77411;PMS7003;66484;49.968;19.140;2023-07-29T00:29:04;8.25;8.25;8.00
77411;PMS7003;66484;49.968;19.140;2023-07-29T00:31:31;12.75;12.25;11.00
77411;PMS7003;66484;49.968;19.140;2023-07-29T00:33:59;10.25;6.75;5.50
77411;PMS7003;66484;49.968;19.140;2023-07-29T00:36:26;12.00;9.00;8.75
77411;PMS7003;66484;49.968;19.140;2023-07-29T00:38:54;9.75;9.75;8.25
77411;PMS7003;66484;49.968;19.140;2023-07-29T00:41:23;13.25;12.25;11.00
77411;PMS7003;66484;49.968;19.140;2023-07-29T00:43:52;17.50;15.25;12.00
77411;PMS7003;66484;49.968;19.140;2023-07-29T00:46:20;23.00;20.00;18.00
77411;PMS7003;66484;49.968;19.140;2023-07-29T00:48:48;23.67;22.67;16.67
77411;PMS7003;66484;49.968;19.140;2023-07-29T00:51:16;30.00;28.33;20.33
77411;PMS7003;66484;49.968;19.140;2023-07-29T00:53:43;26.67;26.67;20.00
77411;PMS7003;66484;49.968;19.140;2023-07-29T00:56:10;25.67;24.67;20.67
77411;PMS7003;66484;49.968;19.140;2023-07-29T00:58:38;22.33;21.33;17.00
77411;PMS7003;66484;49.968;19.140;2023-07-29T01:01:05;27.33;27.33;20.67
77411;PMS7003;66484;49.968;19.140;2023-07-29T01:03:32;18.67;17.33;13.00
77411;PMS7003;66484;49.968;19.140;2023-07-29T01:06:13;15.67;15.33;13.67
77411;PMS7003;66484;49.968;19.140;2023-07-29T01:08:46;12.00;12.00;10.50
77411;PMS7003;66484;49.968;19.140;2023-07-29T01:13:53;16.67;16.33;12.33
77411;PMS7003;66484;49.968;19.140;2023-07-29T01:16:30;12.25;10.75;10.00
77411;PMS7003;66484;49.968;19.140;2023-07-29T01:18:58;16.00;12.75;11.25
77411;PMS7003;66484;49.968;19.140;2023-07-29T01:21:29;14.75;10.00;8.25
77411;PMS7003;66484;49.968;19.140;2023-07-29T01:23:59;10.50;10.50;10.50
77411;PMS7003;66484;49.968;19.140;2023-07-29T01:26:28;9.25;9.25;8.00
77411;PMS7003;66484;49.968;19.140;2023-07-29T01:28:56;8.75;8.75;7.25
77411;PMS7003;66484;49.968;19.140;2023-07-29T01:31:30;11.75;11.75;9.50
77411;PMS7003;66484;49.968;19.140;2023-07-29T01:34:01;10.00;10.00;10.00
77411;PMS7003;66484;49.968;19.140;2023-07-29T01:36:31;12.00;10.50;8.50
77411;PMS7003;66484;49.968;19.140;2023-07-29T01:39:01;8.25;8.25;7.00
77411;PMS7003;66484;49.968;19.140;2023-07-29T01:41:29;9.50;8.25;6.50
77411;PMS7003;66484;49.968;19.140;2023-07-29T01:43:57;10.00;9.25;9.00
77411;PMS7003;66484;49.968;19.140;2023-07-29T01:46:25;9.25;8.25;6.75
77411;PMS7003;66484;49.968;19.140;2023-07-29T01:48:52;9.50;8.50;7.50
77411;PMS7003;66484;49.968;19.140;2023-07-29T01:51:19;12.25;10.50;9.00
77411;PMS7003;66484;49.968;19.140;2023-07-29T01:53:48;11.50;11.50;10.00
77411;PMS7003;66484;49.968;19.140;2023-07-29T01:56:15;10.75;10.00;9.00
77411;PMS7003;66484;49.968;19.140;2023-07-29T01:58:42;10.00;8.75;8.00
77411;PMS7003;66484;49.968;19.140;2023-07-29T02:01:09;9.50;8.50;5.75
77411;PMS7003;66484;49.968;19.140;2023-07-29T02:03:37;10.00;9.00;7.75
77411;PMS7003;66484;49.968;19.140;2023-07-29T02:06:04;8.50;8.50;7.25
77411;PMS7003;66484;49.968;19.140;2023-07-29T02:08:32;8.50;8.50;7.75
77411;PMS7003;66484;49.968;19.140;2023-07-29T02:10:59;10.25;10.25;8.25
77411;PMS7003;66484;49.968;19.140;2023-07-29T02:13:26;7.50;7.25;6.25
77411;PMS7003;66484;49.968;19.140;2023-07-29T02:15:53;9.25;7.50;6.50
77411;PMS7003;66484;49.968;19.140;2023-07-29T02:18:21;10.50;8.50;6.25
77411;PMS7003;66484;49.968;19.140;2023-07-29T02:20:48;13.50;11.75;10.25
77411;PMS7003;66484;49.968;19.140;2023-07-29T02:23:16;10.75;10.75;8.25
77411;PMS7003;66484;49.968;19.140;2023-07-29T02:25:44;15.75;10.00;9.00
77411;PMS7003;66484;49.968;19.140;2023-07-29T02:28:12;22.00;19.50;13.75
77411;PMS7003;66484;49.968;19.140;2023-07-29T02:30:40;13.25;12.50;11.50
77411;PMS7003;66484;49.968;19.140;2023-07-29T02:33:08;14.00;11.00;8.75
77411;PMS7003;66484;49.968;19.140;2023-07-29T02:35:35;12.25;10.75;7.25
77411;PMS7003;66484;49.968;19.140;2023-07-29T02:38:03;9.25;9.25;8.75
77411;PMS7003;66484;49.968;19.140;2023-07-29T02:40:30;9.00;8.75;7.75
77411;PMS7003;66484;49.968;19.140;2023-07-29T02:42:57;12.00;12.00;10.25
77411;PMS7003;66484;49.968;19.140;2023-07-29T02:45:25;16.50;16.50;12.75
77411;PMS7003;66484;49.968;19.140;2023-07-29T02:47:52;16.25;16.25;12.00
77411;PMS7003;66484;49.968;19.140;2023-07-29T02:50:20;12.00;10.25;8.75
77411;PMS7003;66484;49.968;19.140;2023-07-29T02:52:47;11.00;11.00;10.00
77411;PMS7003;66484;49.968;19.140;2023-07-29T02:55:17;12.25;11.50;9.75
77411;PMS7003;66484;49.968;19.140;2023-07-29T02:57:44;10.25;10.25;8.00
77411;PMS7003;66484;49.968;19.140;2023-07-29T03:00:12;13.00;12.50;9.50
77411;PMS7003;66484;49.968;19.140;2023-07-29T03:02:40;11.00;11.00;9.25
77411;PMS7003;66484;49.968;19.140;2023-07-29T03:05:07;8.00;8.00;7.00
77411;PMS7003;66484;49.968;19.140;2023-07-29T03:07:35;9.00;8.50;7.25
77411;PMS7003;66484;49.968;19.140;2023-07-29T03:10:02;8.00;8.00;6.25
77411;PMS7003;66484;49.968;19.140;2023-07-29T03:12:29;12.50;11.25;9.25
77411;PMS7003;66484;49.968;19.140;2023-07-29T03:14:57;11.50;7.00;6.75
77411;PMS7003;66484;49.968;19.140;2023-07-29T03:17:24;14.50;12.75;10.00
77411;PMS7003;66484;49.968;19.140;2023-07-29T03:19:52;13.25;13.25;11.50
77411;PMS7003;66484;49.968;19.140;2023-07-29T03:22:19;11.00;11.00;9.75
77411;PMS7003;66484;49.968;19.140;2023-07-29T03:24:48;13.25;13.25;11.50
77411;PMS7003;66484;49.968;19.140;2023-07-29T03:27:15;11.00;10.75;10.75
77411;PMS7003;66484;49.968;19.140;2023-07-29T03:29:42;11.25;10.25;8.00
77411;PMS7003;66484;49.968;19.140;2023-07-29T03:32:10;14.50;12.75;11.00
77411;PMS7003;66484;49.968;19.140;2023-07-29T03:34:37;12.00;10.25;9.00
77411;PMS7003;66484;49.968;19.140;2023-07-29T03:37:07;13.25;11.25;8.75
77411;PMS7003;66484;49.968;19.140;2023-07-29T03:39:34;11.00;10.75;8.00
77411;PMS7003;66484;49.968;19.140;2023-07-29T03:42:02;8.25;8.25;6.75
77411;PMS7003;66484;49.968;19.140;2023-07-29T03:44:30;11.75;9.00;7.00
77411;PMS7003;66484;49.968;19.140;2023-07-29T03:46:58;9.75;9.25;7.50
77411;PMS7003;66484;49.968;19.140;2023-07-29T03:49:25;9.00;8.50;7.75
77411;PMS7003;66484;49.968;19.140;2023-07-29T03:51:53;10.25;10.25;7.00
77411;PMS7003;66484;49.968;19.140;2023-07-29T03:54:20;10.25;8.50;8.00
77411;PMS7003;66484;49.968;19.140;2023-07-29T03:56:47;10.25;8.00;8.00
77411;PMS7003;66484;49.968;19.140;2023-07-29T03:59:14;8.00;8.00;7.00
77411;PMS7003;66484;49.968;19.140;2023-07-29T04:01:42;12.00;9.50;8.50
77411;PMS7003;66484;49.968;19.140;2023-07-29T04:04:09;10.50;10.00;8.00
77411;PMS7003;66484;49.968;19.140;2023-07-29T04:06:37;10.25;10.25;7.50
77411;PMS7003;66484;49.968;19.140;2023-07-29T04:09:05;11.50;9.25;7.25
77411;PMS7003;66484;49.968;19.140;2023-07-29T04:11:32;9.50;9.50;8.25
77411;PMS7003;66484;49.968;19.140;2023-07-29T04:13:59;12.25;9.50;8.00
77411;PMS7003;66484;49.968;19.140;2023-07-29T04:16:27;10.75;9.75;8.00
77411;PMS7003;66484;49.968;19.140;2023-07-29T04:18:55;10.75;10.75;8.00
77411;PMS7003;66484;49.968;19.140;2023-07-29T04:21:23;8.25;8.25;6.75
77411;PMS7003;66484;49.968;19.140;2023-07-29T04:23:50;6.25;6.25;5.50
77411;PMS7003;66484;49.968;19.140;2023-07-29T04:26:17;9.50;9.50;7.50
77411;PMS7003;66484;49.968;19.140;2023-07-29T04:28:44;8.00;8.00;7.00
77411;PMS7003;66484;49.968;19.140;2023-07-29T04:31:12;10.75;8.00;6.00
77411;PMS7003;66484;49.968;19.140;2023-07-29T04:33:39;6.00;4.75;3.75
77411;PMS7003;66484;49.968;19.140;2023-07-29T04:36:07;11.00;10.00;7.25
77411;PMS7003;66484;49.968;19.140;2023-07-29T04:38:34;9.25;7.25;5.00
77411;PMS7003;66484;49.968;19.140;2023-07-29T04:41:01;9.75;8.25;7.50
77411;PMS7003;66484;49.968;19.140;2023-07-29T04:43:32;8.00;8.00;7.50
77411;PMS7003;66484;49.968;19.140;2023-07-29T04:46:01;9.50;8.50;7.50
77411;PMS7003;66484;49.968;19.140;2023-07-29T04:48:28;10.00;8.75;6.00
77411;PMS7003;66484;49.968;19.140;2023-07-29T04:50:57;8.75;6.75;6.75
77411;PMS7003;66484;49.968;19.140;2023-07-29T04:53:24;6.75;6.75;6.00
77411;PMS7003;66484;49.968;19.140;2023-07-29T04:55:52;8.25;7.75;7.50
77411;PMS7003;66484;49.968;19.140;2023-07-29T04:58:19;9.00;9.00;7.75
77411;PMS7003;66484;49.968;19.140;2023-07-29T05:00:47;7.00;6.50;5.25
77411;PMS7003;66484;49.968;19.140;2023-07-29T05:03:14;10.00;6.00;5.25
77411;PMS7003;66484;49.968;19.140;2023-07-29T05:05:41;8.00;8.00;6.50
77411;PMS7003;66484;49.968;19.140;2023-07-29T05:08:08;6.25;4.75;4.75
77411;PMS7003;66484;49.968;19.140;2023-07-29T05:10:36;5.00;5.00;4.75
77411;PMS7003;66484;49.968;19.140;2023-07-29T05:13:03;6.00;6.00;5.25
77411;PMS7003;66484;49.968;19.140;2023-07-29T05:15:30;5.00;5.00;5.00
77411;PMS7003;66484;49.968;19.140;2023-07-29T05:17:58;8.00;7.00;6.25
77411;PMS7003;66484;49.968;19.140;2023-07-29T05:20:25;8.75;8.00;6.00
77411;PMS7003;66484;49.968;19.140;2023-07-29T05:22:52;7.00;6.75;6.00
77411;PMS7003;66484;49.968;19.140;2023-07-29T05:25:20;8.00;7.00;6.25
77411;PMS7003;66484;49.968;19.140;2023-07-29T05:27:47;8.50;8.50;7.50
77411;PMS7003;66484;49.968;19.140;2023-07-29T05:30:15;7.50;7.00;6.50
77411;PMS7003;66484;49.968;19.140;2023-07-29T05:32:42;8.00;6.00;6.00
77411;PMS7003;66484;49.968;19.140;2023-07-29T05:35:10;5.75;5.75;5.00
77411;PMS7003;66484;49.968;19.140;2023-07-29T05:37:38;4.75;4.75;4.75
77411;PMS7003;66484;49.968;19.140;2023-07-29T05:40:07;9.00;9.00;7.00
77411;PMS7003;66484;49.968;19.140;2023-07-29T05:42:35;8.00;7.00;6.00
77411;PMS7003;66484;49.968;19.140;2023-07-29T05:45:03;4.75;4.75;2.00
77411;PMS7003;66484;49.968;19.140;2023-07-29T05:47:30;6.75;6.75;5.00
77411;PMS7003;66484;49.968;19.140;2023-07-29T05:49:58;11.25;8.75;6.25
77411;PMS7003;66484;49.968;19.140;2023-07-29T05:52:28;7.00;7.00;5.75
77411;PMS7003;66484;49.968;19.140;2023-07-29T05:54:56;8.00;8.00;7.00
77411;PMS7003;66484;49.968;19.140;2023-07-29T05:57:23;2.75;2.75;2.50
77411;PMS7003;66484;49.968;19.140;2023-07-29T05:59:50;5.00;5.00;5.00
77411;PMS7003;66484;49.968;19.140;2023-07-29T06:02:18;6.00;6.00;4.50
77411;PMS7003;66484;49.968;19.140;2023-07-29T06:04:45;6.50;6.50;5.50
77411;PMS7003;66484;49.968;19.140;2023-07-29T06:07:20;8.00;8.00;7.00
77411;PMS7003;66484;49.968;19.140;2023-07-29T06:09:48;6.00;5.00;4.00
77411;PMS7003;66484;49.968;19.140;2023-07-29T06:12:15;5.25;5.25;5.00
77411;PMS7003;66484;49.968;19.140;2023-07-29T06:14:42;5.25;5.25;4.50
77411;PMS7003;66484;49.968;19.140;2023-07-29T06:17:10;4.75;4.00;3.25
77411;PMS7003;66484;49.968;19.140;2023-07-29T06:19:38;3.50;3.50;3.25
77411;PMS7003;66484;49.968;19.140;2023-07-29T06:22:06;5.25;4.25;3.50
77411;PMS7003;66484;49.968;19.140;2023-07-29T06:24:34;6.00;4.00;3.00
77411;PMS7003;66484;49.968;19.140;2023-07-29T06:27:02;2.75;2.75;2.00
77411;PMS7003;66484;49.968;19.140;2023-07-29T06:29:30;3.75;3.75;2.75
77411;PMS7003;66484;49.968;19.140;2023-07-29T06:31:58;2.75;2.75;2.00
77411;PMS7003;66484;49.968;19.140;2023-07-29T06:34:25;5.50;3.75;3.50
77411;PMS7003;66484;49.968;19.140;2023-07-29T06:36:52;3.75;2.50;2.00
77411;PMS7003;66484;49.968;19.140;2023-07-29T06:39:20;2.25;2.25;2.00
77411;PMS7003;66484;49.968;19.140;2023-07-29T06:41:49;2.25;2.25;2.25
77411;PMS7003;66484;49.968;19.140;2023-07-29T06:44:16;2.25;2.25;2.25
77411;PMS7003;66484;49.968;19.140;2023-07-29T06:46:44;2.75;2.00;2.00
77411;PMS7003;66484;49.968;19.140;2023-07-29T06:49:11;2.00;2.00;2.00
77411;PMS7003;66484;49.968;19.140;2023-07-29T06:51:38;3.50;3.50;2.25
77411;PMS7003;66484;49.968;19.140;2023-07-29T06:54:06;2.00;2.00;2.00
77411;PMS7003;66484;49.968;19.140;2023-07-29T06:56:33;1.00;1.00;1.00
77411;PMS7003;66484;49.968;19.140;2023-07-29T06:59:01;1.75;1.75;1.00
77411;PMS7003;66484;49.968;19.140;2023-07-29T07:01:29;4.75;3.50;3.00
77411;PMS7003;66484;49.968;19.140;2023-07-29T07:03:57;0.00;0.00;0.00
77411;PMS7003;66484;49.968;19.140;2023-07-29T07:06:25;2.25;2.25;1.75
77411;PMS7003;66484;49.968;19.140;2023-07-29T07:08:52;1.75;1.75;1.00
77411;PMS7003;66484;49.968;19.140;2023-07-29T07:11:20;2.00;2.00;2.00
77411;PMS7003;66484;49.968;19.140;2023-07-29T07:13:47;3.25;3.25;2.75
77411;PMS7003;66484;49.968;19.140;2023-07-29T07:16:14;2.25;2.25;0.75
77411;PMS7003;66484;49.968;19.140;2023-07-29T07:18:42;3.75;2.50;2.50
77411;PMS7003;66484;49.968;19.140;2023-07-29T07:21:09;2.25;2.25;1.75
77411;PMS7003;66484;49.968;19.140;2023-07-29T07:23:38;3.50;2.00;2.00
77411;PMS7003;66484;49.968;19.140;2023-07-29T07:26:05;1.75;1.75;1.75
77411;PMS7003;66484;49.968;19.140;2023-07-29T07:28:33;0.00;0.00;0.00
77411;PMS7003;66484;49.968;19.140;2023-07-29T07:31:01;6.75;4.25;2.75
77411;PMS7003;66484;49.968;19.140;2023-07-29T07:33:28;3.75;3.75;2.50
77411;PMS7003;66484;49.968;19.140;2023-07-29T07:35:56;3.00;3.00;3.00
77411;PMS7003;66484;49.968;19.140;2023-07-29T07:38:23;2.50;2.50;2.00
77411;PMS7003;66484;49.968;19.140;2023-07-29T07:40:54;2.75;2.75;2.75
77411;PMS7003;66484;49.968;19.140;2023-07-29T07:43:23;2.50;2.50;2.00
77411;PMS7003;66484;49.968;19.140;2023-07-29T07:45:51;3.25;3.25;3.25
77411;PMS7003;66484;49.968;19.140;2023-07-29T07:48:19;1.50;1.50;1.50
77411;PMS7003;66484;49.968;19.140;2023-07-29T07:50:47;2.25;2.25;2.25
77411;PMS7003;66484;49.968;19.140;2023-07-29T07:53:15;4.00;4.00;4.00
77411;PMS7003;66484;49.968;19.140;2023-07-29T07:55:42;3.00;3.00;3.00
77411;PMS7003;66484;49.968;19.140;2023-07-29T07:58:09;2.75;2.75;2.50
77411;PMS7003;66484;49.968;19.140;2023-07-29T08:00:37;3.75;2.75;2.75
77411;PMS7003;66484;49.968;19.140;2023-07-29T08:03:04;3.75;2.75;2.00
77411;PMS7003;66484;49.968;19.140;2023-07-29T08:05:31;3.00;3.00;2.25
77411;PMS7003;66484;49.968;19.140;2023-07-29T08:07:59;3.50;1.75;1.75
77411;PMS7003;66484;49.968;19.140;2023-07-29T08:10:27;1.00;1.00;1.00
77411;PMS7003;66484;49.968;19.140;2023-07-29T08:12:54;2.00;2.00;1.75
77411;PMS7003;66484;49.968;19.140;2023-07-29T08:15:22;1.00;1.00;1.00
77411;PMS7003;66484;49.968;19.140;2023-07-29T08:17:49;0.00;0.00;0.00
77411;PMS7003;66484;49.968;19.140;2023-07-29T08:20:16;3.50;1.75;1.75
77411;PMS7003;66484;49.968;19.140;2023-07-29T08:22:44;3.50;1.50;1.00
77411;PMS7003;66484;49.968;19.140;2023-07-29T08:25:11;2.00;2.00;1.75
77411;PMS7003;66484;49.968;19.140;2023-07-29T08:27:39;1.25;1.25;1.25
77411;PMS7003;66484;49.968;19.140;2023-07-29T08:30:06;2.75;2.75;2.00
77411;PMS7003;66484;49.968;19.140;2023-07-29T08:32:34;1.75;1.00;1.00
77411;PMS7003;66484;49.968;19.140;2023-07-29T08:35:02;3.75;2.00;1.00
77411;PMS7003;66484;49.968;19.140;2023-07-29T08:37:29;3.00;3.00;3.00
77411;PMS7003;66484;49.968;19.140;2023-07-29T08:39:58;2.00;2.00;1.25
77411;PMS7003;66484;49.968;19.140;2023-07-29T08:42:28;6.00;3.00;3.00
77411;PMS7003;66484;49.968;19.140;2023-07-29T08:44:56;2.00;2.00;2.00
77411;PMS7003;66484;49.968;19.140;2023-07-29T08:47:25;3.00;1.50;1.25
77411;PMS7003;66484;49.968;19.140;2023-07-29T08:49:52;4.00;4.00;3.50
77411;PMS7003;66484;49.968;19.140;2023-07-29T08:52:20;2.00;2.00;1.25
77411;PMS7003;66484;49.968;19.140;2023-07-29T08:54:48;2.50;2.25;2.25
77411;PMS7003;66484;49.968;19.140;2023-07-29T08:57:16;4.00;4.00;3.25
77411;PMS7003;66484;49.968;19.140;2023-07-29T08:59:45;3.00;3.00;2.00
77411;PMS7003;66484;49.968;19.140;2023-07-29T09:02:12;2.00;2.00;1.75
77411;PMS7003;66484;49.968;19.140;2023-07-29T09:04:39;3.50;3.50;2.75
77411;PMS7003;66484;49.968;19.140;2023-07-29T09:07:07;2.25;2.25;2.00
77411;PMS7003;66484;49.968;19.140;2023-07-29T09:09:35;1.75;1.75;1.75
77411;PMS7003;66484;49.968;19.140;2023-07-29T09:12:02;3.00;3.00;3.00
77411;PMS7003;66484;49.968;19.140;2023-07-29T09:14:30;2.00;2.00;2.00
77411;PMS7003;66484;49.968;19.140;2023-07-29T09:16:58;3.00;3.00;2.25
77411;PMS7003;66484;49.968;19.140;2023-07-29T09:19:26;3.00;3.00;2.00
77411;PMS7003;66484;49.968;19.140;2023-07-29T09:21:55;3.00;3.00;2.00
77411;PMS7003;66484;49.968;19.140;2023-07-29T09:24:22;2.25;2.25;2.00
77411;PMS7003;66484;49.968;19.140;2023-07-29T09:26:50;4.75;4.75;4.00
77411;PMS7003;66484;49.968;19.140;2023-07-29T09:29:23;2.00;2.00;2.00
77411;PMS7003;66484;49.968;19.140;2023-07-29T09:31:55;3.00;3.00;3.00
77411;PMS7003;66484;49.968;19.140;2023-07-29T09:34:41;3.50;2.50;1.75
77411;PMS7003;66484;49.968;19.140;2023-07-29T09:37:09;0.00;0.00;0.00
77411;PMS7003;66484;49.968;19.140;2023-07-29T09:39:36;2.00;2.00;1.00
77411;PMS7003;66484;49.968;19.140;2023-07-29T09:42:04;3.00;3.00;2.00
77411;PMS7003;66484;49.968;19.140;2023-07-29T09:44:35;1.75;1.75;1.25
77411;PMS7003;66484;49.968;19.140;2023-07-29T09:47:04;3.00;3.00;2.50
77411;PMS7003;66484;49.968;19.140;2023-07-29T09:49:34;2.75;2.75;1.50
77411;PMS7003;66484;49.968;19.140;2023-07-29T09:52:03;2.75;2.75;2.75
77411;PMS7003;66484;49.968;19.140;2023-07-29T09:54:30;1.75;1.75;1.75
77411;PMS7003;66484;49.968;19.140;2023-07-29T09:56:58;2.50;1.75;1.75
77411;PMS7003;66484;49.968;19.140;2023-07-29T09:59:25;2.00;2.00;2.00
77411;PMS7003;66484;49.968;19.140;2023-07-29T10:01:53;1.75;1.75;1.00
77411;PMS7003;66484;49.968;19.140;2023-07-29T10:04:20;1.25;1.25;1.00
77411;PMS7003;66484;49.968;19.140;2023-07-29T10:06:48;1.50;1.50;1.25
77411;PMS7003;66484;49.968;19.140;2023-07-29T10:09:15;0.25;0.25;0.00
77411;PMS7003;66484;49.968;19.140;2023-07-29T10:11:44;2.00;2.00;2.00
77411;PMS7003;66484;49.968;19.140;2023-07-29T10:14:11;3.25;3.25;2.00
77411;PMS7003;66484;49.968;19.140;2023-07-29T10:16:41;4.00;4.00;3.75
77411;PMS7003;66484;49.968;19.140;2023-07-29T10:19:11;2.75;2.25;2.00
77411;PMS7003;66484;49.968;19.140;2023-07-29T10:21:41;1.25;1.25;0.00
77411;PMS7003;66484;49.968;19.140;2023-07-29T10:24:12;1.50;1.25;1.25
77411;PMS7003;66484;49.968;19.140;2023-07-29T10:26:42;1.00;1.00;1.00
77411;PMS7003;66484;49.968;19.140;2023-07-29T10:29:12;1.25;1.25;1.00
77411;PMS7003;66484;49.968;19.140;2023-07-29T10:31:40;0.00;0.00;0.00
77411;PMS7003;66484;49.968;19.140;2023-07-29T10:34:10;1.25;1.25;1.25
77411;PMS7003;66484;49.968;19.140;2023-07-29T10:36:38;1.00;1.00;1.00
77411;PMS7003;66484;49.968;19.140;2023-07-29T10:39:08;2.25;1.00;1.00
77411;PMS7003;66484;49.968;19.140;2023-07-29T10:47:16;2.00;2.00;1.25
77411;PMS7003;66484;49.968;19.140;2023-07-29T10:49:45;2.00;2.00;1.00
77411;PMS7003;66484;49.968;19.140;2023-07-29T10:52:13;2.75;2.75;2.25
77411;PMS7003;66484;49.968;19.140;2023-07-29T10:54:44;2.25;2.00;1.00
77411;PMS7003;66484;49.968;19.140;2023-07-29T10:57:31;1.75;1.75;1.00
77411;PMS7003;66484;49.968;19.140;2023-07-29T10:59:59;2.25;2.25;1.50
77411;PMS7003;66484;49.968;19.140;2023-07-29T11:02:31;2.00;2.00;1.75
77411;PMS7003;66484;49.968;19.140;2023-07-29T11:04:59;3.00;2.00;1.50
77411;PMS7003;66484;49.968;19.140;2023-07-29T11:07:26;3.50;3.50;2.75
77411;PMS7003;66484;49.968;19.140;2023-07-29T11:17:40;3.25;2.75;2.75
77411;PMS7003;66484;49.968;19.140;2023-07-29T11:20:08;2.25;2.00;1.75
77411;PMS7003;66484;49.968;19.140;2023-07-29T11:22:36;3.25;2.00;2.00
77411;PMS7003;66484;49.968;19.140;2023-07-29T11:25:04;3.00;3.00;3.00
77411;PMS7003;66484;49.968;19.140;2023-07-29T11:27:34;4.00;4.00;3.75
77411;PMS7003;66484;49.968;19.140;2023-07-29T11:30:03;2.00;2.00;1.50
77411;PMS7003;66484;49.968;19.140;2023-07-29T11:32:33;3.75;3.75;3.00
77411;PMS7003;66484;49.968;19.140;2023-07-29T11:35:01;3.75;2.25;1.75
77411;PMS7003;66484;49.968;19.140;2023-07-29T11:37:28;3.00;3.00;3.00
77411;PMS7003;66484;49.968;19.140;2023-07-29T11:39:56;2.00;2.00;2.00
77411;PMS7003;66484;49.968;19.140;2023-07-29T11:42:23;0.25;0.25;0.25
77411;PMS7003;66484;49.968;19.140;2023-07-29T11:44:51;2.25;2.25;2.25
77411;PMS7003;66484;49.968;19.140;2023-07-29T11:47:18;2.25;2.25;1.25
77411;PMS7003;66484;49.968;19.140;2023-07-29T11:49:46;1.75;1.75;1.50
77411;PMS7003;66484;49.968;19.140;2023-07-29T11:52:13;1.00;1.00;1.00
77411;PMS7003;66484;49.968;19.140;2023-07-29T11:54:40;0.00;0.00;0.00
77411;PMS7003;66484;49.968;19.140;2023-07-29T11:57:08;0.00;0.00;0.00
77411;PMS7003;66484;49.968;19.140;2023-07-29T11:59:37;1.25;1.25;1.25
77411;PMS7003;66484;49.968;19.140;2023-07-29T12:02:05;0.75;0.00;0.00
77411;PMS7003;66484;49.968;19.140;2023-07-29T12:04:34;1.00;1.00;0.50
77411;PMS7003;66484;49.968;19.140;2023-07-29T12:07:03;3.00;3.00;2.00
77411;PMS7003;66484;49.968;19.140;2023-07-29T12:09:30;2.50;0.50;0.00
77411;PMS7003;66484;49.968;19.140;2023-07-29T12:11:57;1.00;1.00;1.00
77411;PMS7003;66484;49.968;19.140;2023-07-29T12:14:26;1.50;1.50;0.50
77411;PMS7003;66484;49.968;19.140;2023-07-29T12:16:54;3.00;1.25;1.00
77411;PMS7003;66484;49.968;19.140;2023-07-29T12:19:21;0.50;0.50;0.25
77411;PMS7003;66484;49.968;19.140;2023-07-29T12:21:49;2.00;1.75;1.75
77411;PMS7003;66484;49.968;19.140;2023-07-29T12:24:17;3.00;3.00;2.75
77411;PMS7003;66484;49.968;19.140;2023-07-29T12:26:46;1.00;1.00;1.00
77411;PMS7003;66484;49.968;19.140;2023-07-29T12:29:14;2.00;2.00;1.75
77411;PMS7003;66484;49.968;19.140;2023-07-29T12:31:42;2.00;2.00;2.00
77411;PMS7003;66484;49.968;19.140;2023-07-29T12:34:09;1.50;1.00;1.00
77411;PMS7003;66484;49.968;19.140;2023-07-29T12:36:42;1.25;1.25;1.00
77411;PMS7003;66484;49.968;19.140;2023-07-29T12:39:19;2.50;2.00;1.00
77411;PMS7003;66484;49.968;19.140;2023-07-29T12:41:49;0.75;0.75;0.75
77411;PMS7003;66484;49.968;19.140;2023-07-29T12:44:17;1.00;1.00;1.00
77411;PMS7003;66484;49.968;19.140;2023-07-29T12:46:44;4.50;3.00;2.50
77411;PMS7003;66484;49.968;19.140;2023-07-29T12:49:12;1.75;1.75;1.75
77411;PMS7003;66484;49.968;19.140;2023-07-29T12:51:39;4.25;4.25;4.00
77411;PMS7003;66484;49.968;19.140;2023-07-29T12:54:06;2.25;2.25;1.75
77411;PMS7003;66484;49.968;19.140;2023-07-29T12:56:34;4.00;3.00;2.75
77411;PMS7003;66484;49.968;19.140;2023-07-29T12:59:03;3.00;3.00;3.00
77411;PMS7003;66484;49.968;19.140;2023-07-29T13:01:30;2.00;2.00;1.00
77411;PMS7003;66484;49.968;19.140;2023-07-29T13:04:01;1.75;1.75;1.00
77411;PMS7003;66484;49.968;19.140;2023-07-29T13:06:28;2.50;2.50;2.50
77411;PMS7003;66484;49.968;19.140;2023-07-29T13:09:01;4.00;1.25;1.25
77411;PMS7003;66484;49.968;19.140;2023-07-29T13:11:28;1.25;1.25;1.25
77411;PMS7003;66484;49.968;19.140;2023-07-29T13:13:55;1.00;1.00;1.00
77411;PMS7003;66484;49.968;19.140;2023-07-29T13:16:23;1.25;1.25;1.00
77411;PMS7003;66484;49.968;19.140;2023-07-29T13:18:51;0.25;0.00;0.00
77411;PMS7003;66484;49.968;19.140;2023-07-29T13:21:18;0.00;0.00;0.00
77411;PMS7003;66484;49.968;19.140;2023-07-29T13:23:46;0.00;0.00;0.00
77411;PMS7003;66484;49.968;19.140;2023-07-29T13:26:13;0.00;0.00;0.00
77411;PMS7003;66484;49.968;19.140;2023-07-29T13:28:41;0.50;0.50;0.00
77411;PMS7003;66484;49.968;19.140;2023-07-29T13:31:08;0.00;0.00;0.00
77411;PMS7003;66484;49.968;19.140;2023-07-29T13:33:35;0.00;0.00;0.00
77411;PMS7003;66484;49.968;19.140;2023-07-29T13:36:02;1.00;1.00;1.00
77411;PMS7003;66484;49.968;19.140;2023-07-29T13:38:30;1.50;0.00;0.00
77411;PMS7003;66484;49.968;19.140;2023-07-29T13:40:57;0.00;0.00;0.00
77411;PMS7003;66484;49.968;19.140;2023-07-29T13:43:25;1.50;1.50;1.00
77411;PMS7003;66484;49.968;19.140;2023-07-29T13:45:52;1.75;1.75;1.00
77411;PMS7003;66484;49.968;19.140;2023-07-29T13:48:19;1.75;0.75;0.75
77411;PMS7003;66484;49.968;19.140;2023-07-29T13:50:47;2.75;1.00;1.00
77411;PMS7003;66484;49.968;19.140;2023-07-29T13:53:14;1.00;1.00;0.75
77411;PMS7003;66484;49.968;19.140;2023-07-29T13:55:42;1.00;0.75;0.75
77411;PMS7003;66484;49.968;19.140;2023-07-29T13:58:09;1.75;1.00;1.00
77411;PMS7003;66484;49.968;19.140;2023-07-29T14:00:36;1.25;1.25;1.00
77411;PMS7003;66484;49.968;19.140;2023-07-29T14:03:04;1.50;1.50;1.00
77411;PMS7003;66484;49.968;19.140;2023-07-29T14:05:31;0.25;0.25;0.00
77411;PMS7003;66484;49.968;19.140;2023-07-29T14:07:59;0.00;0.00;0.00
77411;PMS7003;66484;49.968;19.140;2023-07-29T14:10:26;1.00;1.00;1.00
77411;PMS7003;66484;49.968;19.140;2023-07-29T14:12:53;1.50;1.25;1.25
77411;PMS7003;66484;49.968;19.140;2023-07-29T14:15:21;2.00;2.00;1.75
77411;PMS7003;66484;49.968;19.140;2023-07-29T14:17:48;3.50;3.50;3.50
77411;PMS7003;66484;49.968;19.140;2023-07-29T14:20:16;1.00;1.00;1.00
77411;PMS7003;66484;49.968;19.140;2023-07-29T14:22:48;1.50;1.25;1.25
77411;PMS7003;66484;49.968;19.140;2023-07-29T14:25:15;1.00;1.00;1.00